Time;durP1;ratioP1;P1;durP2;ratioP2;P2;SDS_P1;SDS_P2;PMS_P1;PMS_P2;Temp;Humidity;BMP_temperature;BMP_pressure;BME280_temperature;BME280_humidity;BME280_pressure;Samples;Min_cycle;Max_cycle;Signal;HPM_P1;HPM_P2
2022/11/22 00:00:14;;;;;;;13.43;8.35;;;10.00;99.90;10.30;98024.00;;;;339871;28;90958;-90
2022/11/22 00:00:26;;;;;;;14.55;8.73;;;10.00;99.90;10.10;98015.00;;;;341575;28;83438;-90
2022/11/22 00:00:39;;;;;;;13.18;8.45;;;10.00;99.90;10.20;98018.00;;;;339949;28;91802;-90
2022/11/22 00:00:51;;;;;;;10.73;7.68;;;10.00;99.90;10.20;98018.00;;;;338945;28;83646;-89
2022/11/22 00:01:03;;;;;;;11.40;7.50;;;10.00;99.90;10.20;98010.00;;;;340195;28;91107;-89
2022/11/22 00:01:15;;;;;;;13.35;7.97;;;10.00;99.90;10.30;98023.00;;;;340385;28;83529;-90
2022/11/22 00:01:27;;;;;;;14.45;9.02;;;10.10;99.90;10.30;98011.00;;;;339378;28;87615;-90
2022/11/22 00:01:38;;;;;;;13.93;9.52;;;10.00;99.90;10.30;98016.00;;;;341689;28;83702;-89
2022/11/22 00:01:50;;;;;;;13.50;9.43;;;10.10;99.90;10.30;98023.00;;;;339869;28;90124;-90
2022/11/22 00:02:02;;;;;;;13.98;8.88;;;10.10;99.90;10.30;98023.00;;;;341495;28;82792;-90
2022/11/22 00:02:14;;;;;;;13.35;8.75;;;10.10;99.90;10.20;98022.00;;;;340224;28;89092;-90
2022/11/22 00:02:26;;;;;;;13.07;8.23;;;10.00;99.90;10.20;98021.00;;;;341499;28;82513;-90
2022/11/22 00:02:38;;;;;;;15.05;8.32;;;10.00;99.90;10.20;98013.00;;;;339997;28;88188;-90
2022/11/22 00:02:50;;;;;;;15.32;8.45;;;10.00;99.90;10.20;98016.00;;;;340265;28;83156;-90
2022/11/22 00:03:02;;;;;;;16.83;8.88;;;10.00;99.90;10.10;98014.00;;;;341259;28;91157;-90
2022/11/22 00:03:14;;;;;;;17.05;8.93;;;10.00;99.90;10.10;98000.00;;;;340428;28;83364;-90
2022/11/22 00:03:26;;;;;;;15.88;8.57;;;10.00;99.90;10.00;98007.00;;;;340034;28;91519;-90
2022/11/22 00:03:37;;;;;;;17.25;9.05;;;10.00;99.90;10.10;98008.00;;;;340911;28;83252;-90
2022/11/22 00:03:49;;;;;;;16.02;8.80;;;10.00;99.90;10.00;98006.00;;;;343060;28;90607;-90
2022/11/22 00:04:01;;;;;;;15.77;8.82;;;10.00;99.90;10.20;98014.00;;;;341845;28;84793;-89
2022/11/22 00:04:13;;;;;;;15.63;8.70;;;10.00;99.90;10.20;98014.00;;;;342863;28;92375;-90
2022/11/22 00:04:25;;;;;;;16.38;9.05;;;10.00;99.90;10.30;98016.00;;;;343244;28;83526;-89
2022/11/22 00:04:37;;;;;;;15.10;9.35;;;10.00;99.90;10.20;98016.00;;;;338992;28;92144;-89
2022/11/22 00:04:49;;;;;;;13.25;8.48;;;10.00;99.90;10.10;98017.00;;;;339182;28;82604;-89
2022/11/22 00:05:02;;;;;;;12.65;8.27;;;10.00;99.90;10.10;98007.00;;;;340306;28;91638;-90
2022/11/22 00:05:14;;;;;;;12.05;8.35;;;10.00;99.90;10.20;98011.00;;;;343277;28;83624;-90
2022/11/22 00:05:26;;;;;;;12.10;8.43;;;10.00;99.90;10.20;98015.00;;;;340397;28;88716;-89
2022/11/22 00:05:38;;;;;;;12.20;8.68;;;10.00;99.90;10.20;98016.00;;;;342124;28;83568;-89
2022/11/22 00:05:49;;;;;;;13.60;8.88;;;10.00;99.90;10.20;98023.00;;;;340349;28;87144;-90
2022/11/22 00:06:01;;;;;;;14.90;8.98;;;10.00;99.90;10.30;98023.00;;;;343593;28;83402;-90
2022/11/22 00:06:13;;;;;;;14.65;9.10;;;10.00;99.90;10.20;98007.00;;;;339059;28;89549;-89
2022/11/22 00:06:25;;;;;;;14.23;8.57;;;10.10;99.90;10.30;98012.00;;;;341744;28;83419;-90
2022/11/22 00:06:37;;;;;;;12.73;8.50;;;10.10;99.90;10.30;98015.00;;;;341435;28;91228;-91
2022/11/22 00:06:49;;;;;;;11.75;8.43;;;10.10;99.90;10.30;98016.00;;;;341668;28;82630;-90
2022/11/22 00:07:01;;;;;;;13.27;9.35;;;10.10;99.90;10.30;98015.00;;;;338876;28;91532;-90
2022/11/22 00:07:13;;;;;;;16.80;10.10;;;10.10;99.90;10.30;98018.00;;;;339385;28;83873;-90
2022/11/22 00:07:25;;;;;;;18.80;9.77;;;10.10;99.90;10.20;98016.00;;;;340433;28;90912;-90
2022/11/22 00:07:37;;;;;;;18.95;9.35;;;10.10;99.90;10.20;98014.00;;;;342015;28;85506;-90
2022/11/22 00:07:49;;;;;;;16.83;9.23;;;10.10;99.90;10.10;98021.00;;;;341725;28;90581;-90
2022/11/22 00:08:02;;;;;;;16.85;9.65;;;10.10;99.90;10.10;98015.00;;;;343476;28;82552;-90
2022/11/22 00:08:14;;;;;;;13.55;8.88;;;10.10;99.90;10.10;98023.00;;;;340157;28;91560;-90
2022/11/22 00:08:26;;;;;;;12.88;8.77;;;10.10;99.90;10.10;98017.00;;;;342154;28;83294;-90
2022/11/22 00:08:38;;;;;;;14.60;9.00;;;10.10;99.90;10.00;98017.00;;;;339328;28;88203;-90
2022/11/22 00:08:50;;;;;;;14.73;9.65;;;10.10;99.90;10.00;98016.00;;;;341829;28;82610;-90
2022/11/22 00:09:02;;;;;;;14.40;9.32;;;10.10;99.90;10.00;98021.00;;;;338993;28;89632;-90
2022/11/22 00:09:14;;;;;;;14.98;9.23;;;10.00;99.90;10.00;98013.00;;;;340199;28;83350;-90
2022/11/22 00:09:26;;;;;;;15.50;9.23;;;10.10;99.90;10.10;98011.00;;;;341560;28;90769;-90
2022/11/22 00:09:38;;;;;;;16.20;8.77;;;10.00;99.90;10.10;98013.00;;;;344498;28;82774;-90
2022/11/22 00:09:50;;;;;;;16.50;9.60;;;10.00;99.90;10.10;98013.00;;;;341720;28;88196;-89
2022/11/22 00:10:04;;;;;;;14.05;9.70;;;10.10;99.90;10.20;98014.00;;;;340349;28;82547;-90
2022/11/22 00:10:16;;;;;;;13.35;9.60;;;10.00;99.90;10.20;98024.00;;;;340300;28;89766;-90
2022/11/22 00:10:27;;;;;;;16.27;8.73;;;10.00;99.90;10.20;98024.00;;;;342034;28;83337;-90
2022/11/22 00:10:39;;;;;;;16.85;8.95;;;10.00;99.90;10.20;98015.00;;;;341687;28;87929;-89
2022/11/22 00:10:51;;;;;;;18.33;9.57;;;10.10;99.90;10.20;98017.00;;;;343317;28;82666;-89
2022/11/22 00:11:03;;;;;;;15.40;9.55;;;10.10;99.90;10.30;98021.00;;;;340229;28;90390;-89
2022/11/22 00:11:15;;;;;;;16.20;10.18;;;10.10;99.90;10.20;98021.00;;;;343220;28;83932;-89
2022/11/22 00:11:27;;;;;;;18.42;10.82;;;10.10;99.90;10.20;98017.00;;;;341579;28;92564;-89
2022/11/22 00:11:39;;;;;;;19.15;10.52;;;10.10;99.90;10.20;98014.00;;;;343465;28;86039;-89
2022/11/22 00:11:51;;;;;;;16.52;10.20;;;10.10;99.90;10.10;98001.00;;;;341934;28;89730;-89
2022/11/22 00:12:03;;;;;;;15.77;9.95;;;10.10;99.90;10.10;98018.00;;;;341815;28;85529;-90
2022/11/22 00:12:15;;;;;;;15.35;9.35;;;10.10;99.90;10.00;98016.00;;;;341141;28;90717;-89
2022/11/22 00:12:26;;;;;;;16.38;9.48;;;10.00;99.90;10.00;98021.00;;;;342209;28;84575;-89
2022/11/22 00:12:39;;;;;;;17.55;9.20;;;10.10;99.90;10.00;98012.00;;;;343106;28;89184;-90
2022/11/22 00:12:51;;;;;;;19.08;9.95;;;10.00;99.90;10.00;98012.00;;;;342233;28;82486;-90
2022/11/22 00:13:03;;;;;;;18.45;10.48;;;10.00;99.90;10.00;98012.00;;;;340053;28;92976;-89
2022/11/22 00:13:18;;;;;;;16.02;10.30;;;10.00;99.90;10.10;98027.00;;;;340773;28;83360;-90
2022/11/22 00:13:30;;;;;;;13.50;9.20;;;10.00;99.90;10.10;98015.00;;;;341675;28;88463;-89
2022/11/22 00:13:41;;;;;;;13.43;9.30;;;10.00;99.90;10.10;98014.00;;;;340876;28;83735;-90
2022/11/22 00:13:53;;;;;;;13.55;9.63;;;10.00;99.90;10.20;98009.00;;;;339212;28;90876;-90
2022/11/22 00:14:05;;;;;;;15.35;10.02;;;10.00;99.90;10.30;98022.00;;;;340666;28;83735;-90
2022/11/22 00:14:17;;;;;;;15.35;10.05;;;10.00;99.90;10.40;98021.00;;;;341767;28;90113;-90
2022/11/22 00:14:29;;;;;;;13.95;9.80;;;10.00;99.90;10.40;98017.00;;;;340462;28;85763;-89
2022/11/22 00:14:41;;;;;;;14.52;9.68;;;10.00;99.90;10.40;98022.00;;;;342803;28;90792;-90
2022/11/22 00:14:52;;;;;;;13.38;8.98;;;10.00;99.90;10.40;98011.00;;;;342229;28;83003;-89
2022/11/22 00:15:08;;;;;;;12.55;8.48;;;10.00;99.90;10.40;98021.00;;;;341688;28;91797;-90
2022/11/22 00:15:20;;;;;;;14.40;9.25;;;10.10;99.90;10.50;98013.00;;;;340929;28;82550;-90
2022/11/22 00:15:32;;;;;;;16.00;9.82;;;10.10;99.90;10.50;98022.00;;;;340401;28;92412;-89
2022/11/22 00:15:44;;;;;;;19.00;10.27;;;10.10;99.90;10.50;98027.00;;;;340654;28;85065;-90
2022/11/22 00:16:02;;;;;;;16.35;9.40;;;10.10;99.90;10.40;98026.00;;;;338778;28;90326;-90
2022/11/22 00:16:14;;;;;;;15.68;9.52;;;10.10;99.90;10.40;98016.00;;;;343303;28;86856;-90
2022/11/22 00:16:26;;;;;;;15.88;9.70;;;10.10;99.90;10.20;98021.00;;;;338980;28;89390;-89
2022/11/22 00:16:37;;;;;;;16.00;10.00;;;10.10;99.90;10.30;98021.00;;;;340704;28;83377;-90
2022/11/22 00:16:49;;;;;;;13.40;9.24;;;10.10;99.90;10.40;98021.00;;;;338939;28;90737;-89
2022/11/22 00:17:01;;;;;;;13.02;8.65;;;10.10;99.90;10.20;98012.00;;;;339349;28;86948;-90
2022/11/22 00:17:13;;;;;;;14.98;8.85;;;10.10;99.90;10.10;98013.00;;;;339009;28;91649;-90
2022/11/22 00:17:25;;;;;;;15.32;9.38;;;10.10;99.90;10.00;98012.00;;;;340654;28;84991;-90
2022/11/22 00:17:37;;;;;;;14.10;8.88;;;10.10;99.90;10.00;98017.00;;;;340379;28;90912;-90
2022/11/22 00:17:48;;;;;;;17.15;9.38;;;10.10;99.90;10.00;98010.00;;;;340681;28;83443;-89
2022/11/22 00:18:00;;;;;;;17.20;9.80;;;10.10;99.90;10.00;97996.00;;;;341865;28;88316;-89
2022/11/22 00:18:12;;;;;;;16.90;9.95;;;10.10;99.90;10.20;98017.00;;;;343338;28;84235;-90
2022/11/22 00:18:24;;;;;;;16.35;9.43;;;10.10;99.90;10.20;98021.00;;;;341470;28;90950;-90
2022/11/22 00:18:36;;;;;;;17.30;9.63;;;10.10;99.90;10.20;98021.00;;;;340616;28;83269;-90
2022/11/22 00:18:48;;;;;;;16.80;9.63;;;10.10;99.90;10.10;98013.00;;;;340390;28;89926;-90
2022/11/22 00:19:00;;;;;;;18.00;9.40;;;10.10;99.90;10.20;98015.00;;;;339426;28;85142;-90
2022/11/22 00:19:12;;;;;;;18.30;9.55;;;10.10;99.90;10.10;98016.00;;;;339060;28;90366;-89
2022/11/22 00:19:24;;;;;;;17.38;9.98;;;10.10;99.90;10.10;98010.00;;;;340669;28;83211;-89
2022/11/22 00:19:38;;;;;;;15.10;9.77;;;10.00;99.90;10.10;98012.00;;;;340388;28;89199;-89
2022/11/22 00:19:50;;;;;;;15.48;9.68;;;10.10;99.90;10.20;98021.00;;;;340464;28;85307;-89
2022/11/22 00:20:04;;;;;;;16.40;9.65;;;10.10;99.90;10.20;98024.00;;;;340487;28;89734;-89
2022/11/22 00:20:16;;;;;;;18.77;10.35;;;10.10;99.90;10.20;98012.00;;;;338244;28;83419;-90
2022/11/22 00:20:28;;;;;;;18.48;10.57;;;10.10;99.90;10.10;98012.00;;;;344113;28;92298;-90
2022/11/22 00:20:40;;;;;;;15.55;10.05;;;10.10;99.90;10.10;98018.00;;;;340514;28;85612;-89
2022/11/22 00:20:52;;;;;;;14.10;9.68;;;10.10;99.90;10.00;98010.00;;;;340313;28;90465;-90
2022/11/22 00:21:06;;;;;;;14.05;9.85;;;10.10;99.90;9.90;98007.00;;;;344563;28;85138;-90
2022/11/22 00:21:18;;;;;;;15.60;10.65;;;10.10;99.90;9.90;98022.00;;;;340284;28;92570;-91
2022/11/22 00:21:30;;;;;;;16.23;10.50;;;10.10;99.90;9.80;98007.00;;;;342090;28;83405;-89
2022/11/22 00:21:42;;;;;;;15.98;9.68;;;10.00;99.90;9.80;98025.00;;;;340269;28;90545;-88
2022/11/22 00:21:54;;;;;;;16.15;9.52;;;10.00;99.90;9.80;98018.00;;;;340719;28;85864;-90
2022/11/22 00:22:07;;;;;;;16.90;9.18;;;10.00;99.90;9.80;98014.00;;;;341490;28;90069;-90
2022/11/22 00:22:19;;;;;;;16.45;9.32;;;10.00;99.90;9.80;98012.00;;;;343638;28;83297;-90
2022/11/22 00:22:31;;;;;;;17.92;10.05;;;10.00;99.90;9.80;98023.00;;;;340524;28;89930;-90
2022/11/22 00:22:43;;;;;;;19.02;10.30;;;10.00;99.90;9.80;98012.00;;;;342268;28;83589;-90
2022/11/22 00:22:57;;;;;;;16.77;9.95;;;10.00;99.90;9.80;98021.00;;;;341929;28;89509;-90
2022/11/22 00:23:09;;;;;;;19.15;10.32;;;10.00;99.90;9.80;98017.00;;;;343545;28;85209;-90
2022/11/22 00:23:21;;;;;;;19.73;10.43;;;10.00;99.90;9.80;98010.00;;;;344670;28;88146;-90
2022/11/22 00:23:33;;;;;;;18.35;9.80;;;9.90;99.90;9.90;98012.00;;;;343768;28;83581;-90
2022/11/22 00:23:45;;;;;;;16.02;9.60;;;9.90;99.90;9.90;98018.00;;;;340684;28;88493;-90
2022/11/22 00:23:57;;;;;;;17.70;9.63;;;10.00;99.90;10.00;98011.00;;;;339664;28;82527;-90
2022/11/22 00:24:12;;;;;;;16.88;9.73;;;9.90;99.90;9.90;98009.00;;;;343288;28;91298;-90
2022/11/22 00:24:24;;;;;;;16.10;10.05;;;9.90;99.90;9.90;98008.00;;;;339609;28;82744;-90
2022/11/22 00:24:36;;;;;;;17.65;10.55;;;9.90;99.90;10.00;98008.00;;;;341609;28;91400;-90
2022/11/22 00:24:50;;;;;;;20.00;10.95;;;9.90;99.90;10.10;98004.00;;;;339429;28;84302;-89
2022/11/22 00:25:02;;;;;;;19.08;10.80;;;9.90;99.90;10.10;98006.00;;;;340850;28;89914;-90
2022/11/22 00:25:14;;;;;;;18.38;10.50;;;9.90;99.90;10.10;98004.00;;;;342243;28;85885;-89
2022/11/22 00:25:26;;;;;;;17.90;10.27;;;9.90;99.90;10.10;98002.00;;;;342066;28;89318;-90
2022/11/22 00:25:38;;;;;;;18.80;10.77;;;10.00;99.90;10.10;98004.00;;;;343442;28;83486;-89
2022/11/22 00:25:50;;;;;;;18.98;11.73;;;9.90;99.90;10.10;97993.00;;;;341850;28;90347;-88
2022/11/22 00:26:02;;;;;;;17.80;11.52;;;10.00;99.90;10.10;97995.00;;;;341870;28;86748;-90
2022/11/22 00:26:13;;;;;;;14.45;9.40;;;10.00;99.90;10.00;98001.00;;;;342919;28;90910;-88
2022/11/22 00:26:25;;;;;;;14.35;8.77;;;9.90;99.90;10.10;98004.00;;;;343809;28;83652;-88
2022/11/22 00:26:37;;;;;;;15.27;9.10;;;10.00;99.90;10.10;98001.00;;;;343228;28;90706;-88
2022/11/22 00:26:49;;;;;;;17.30;9.93;;;10.00;99.90;10.00;97999.00;;;;344664;28;83008;-89
2022/11/22 00:27:01;;;;;;;18.26;9.84;;;10.00;99.90;10.00;98001.00;;;;342930;28;90871;-88
2022/11/22 00:27:13;;;;;;;17.52;9.98;;;10.00;99.90;10.30;98003.00;;;;343645;28;82380;-89
2022/11/22 00:27:25;;;;;;;14.50;9.25;;;10.00;99.90;10.30;98000.00;;;;344262;28;91119;-89
2022/11/22 00:27:37;;;;;;;15.68;9.05;;;10.00;99.90;10.30;97997.00;;;;343295;28;85968;-89
2022/11/22 00:27:48;;;;;;;14.90;8.20;;;10.00;99.90;10.30;97999.00;;;;343106;28;90667;-87
2022/11/22 00:28:00;;;;;;;16.98;8.18;;;10.00;99.90;10.10;98000.00;;;;340908;28;82489;-87
2022/11/22 00:28:12;;;;;;;20.92;9.45;;;10.00;99.90;10.10;98001.00;;;;342864;28;89690;-88
2022/11/22 00:28:24;;;;;;;20.55;10.00;;;10.00;99.90;10.00;97992.00;;;;341868;28;82455;-88
2022/11/22 00:28:36;;;;;;;15.82;9.57;;;10.00;99.90;10.20;97998.00;;;;341643;28;89819;-86
2022/11/22 00:28:48;;;;;;;15.98;9.68;;;10.00;99.90;10.10;97998.00;;;;343315;28;83628;-90
2022/11/22 00:28:59;;;;;;;18.20;9.90;;;10.00;99.90;10.10;97995.00;;;;341719;28;90473;-87
2022/11/22 00:29:13;;;;;;;18.85;10.23;;;10.00;99.90;10.00;97999.00;;;;343562;28;82418;-89
2022/11/22 00:29:25;;;;;;;18.60;10.73;;;10.00;99.90;10.00;98002.00;;;;342668;28;91656;-89
2022/11/22 00:29:37;;;;;;;18.98;10.93;;;10.00;99.90;10.00;98001.00;;;;344373;28;85167;-90
2022/11/22 00:29:49;;;;;;;20.90;12.00;;;10.00;99.90;10.00;98004.00;;;;341727;28;89143;-89
2022/11/22 00:30:01;;;;;;;18.05;10.98;;;10.00;99.90;9.90;98001.00;;;;344790;28;86265;-88
2022/11/22 00:30:12;;;;;;;17.00;10.55;;;10.00;99.90;9.90;97997.00;;;;341235;28;88679;-90
2022/11/22 00:30:24;;;;;;;15.98;9.70;;;10.00;99.90;9.90;98002.00;;;;340872;28;83736;-90
2022/11/22 00:30:36;;;;;;;17.00;10.23;;;9.90;99.90;9.90;98002.00;;;;340439;28;89986;-90
2022/11/22 00:30:48;;;;;;;16.83;9.60;;;10.00;99.90;9.90;98005.00;;;;340357;28;84740;-90
2022/11/22 00:31:00;;;;;;;16.67;9.35;;;10.00;99.90;9.90;98006.00;;;;341794;28;91600;-90
2022/11/22 00:31:12;;;;;;;17.10;9.50;;;9.90;99.90;10.00;98001.00;;;;340863;28;82332;-90
2022/11/22 00:31:24;;;;;;;15.40;10.07;;;9.90;99.90;10.10;98002.00;;;;340106;28;92796;-90
2022/11/22 00:31:36;;;;;;;15.80;10.30;;;9.90;99.90;10.10;97997.00;;;;342033;28;82423;-89
2022/11/22 00:31:47;;;;;;;18.80;10.05;;;10.00;99.90;10.10;97993.00;;;;342894;28;91716;-90
2022/11/22 00:31:59;;;;;;;20.08;10.30;;;9.90;99.90;10.00;97998.00;;;;344844;28;84887;-90
2022/11/22 00:32:11;;;;;;;21.02;11.18;;;10.00;99.90;9.90;98004.00;;;;342935;28;88355;-90
2022/11/22 00:32:23;;;;;;;19.85;12.13;;;10.00;99.90;10.00;97998.00;;;;339063;28;87415;-89
2022/11/22 00:32:35;;;;;;;20.17;12.20;;;9.90;99.90;10.00;97999.00;;;;341840;28;88072;-90
2022/11/22 00:32:47;;;;;;;19.65;11.13;;;9.90;99.90;10.00;97996.00;;;;339335;28;82989;-90
2022/11/22 00:32:59;;;;;;;19.95;10.45;;;9.90;99.90;10.00;97998.00;;;;341369;28;89870;-90
2022/11/22 00:33:11;;;;;;;18.58;10.35;;;9.90;99.90;10.10;97999.00;;;;341805;28;86000;-89
2022/11/22 00:33:23;;;;;;;18.38;10.48;;;10.00;99.90;10.10;98004.00;;;;341306;28;93141;-90
2022/11/22 00:33:35;;;;;;;17.63;9.93;;;9.90;99.90;10.20;97998.00;;;;339327;28;84247;-90
2022/11/22 00:33:47;;;;;;;17.42;10.05;;;9.90;99.90;10.10;97999.00;;;;341428;28;90805;-90
2022/11/22 00:33:58;;;;;;;17.45;10.20;;;10.00;99.90;10.10;97990.00;;;;342028;28;83470;-88
2022/11/22 00:34:10;;;;;;;18.77;11.23;;;10.00;99.90;10.10;97998.00;;;;340438;28;89383;-90
2022/11/22 00:34:22;;;;;;;18.70;10.73;;;9.90;99.90;10.00;97996.00;;;;340725;28;85721;-89
2022/11/22 00:34:34;;;;;;;18.90;11.05;;;9.90;99.90;10.00;97992.00;;;;340241;28;89488;-90
2022/11/22 00:34:46;;;;;;;16.55;10.35;;;9.90;99.90;9.90;97992.00;;;;339169;28;84979;-90
2022/11/22 00:34:57;;;;;;;15.93;10.13;;;9.90;99.90;9.90;98002.00;;;;340146;28;89833;-90
2022/11/22 00:35:10;;;;;;;15.07;9.70;;;9.90;99.90;9.80;97996.00;;;;340484;28;86582;-89
2022/11/22 00:35:22;;;;;;;17.13;10.57;;;9.90;99.90;9.80;97999.00;;;;342806;28;90506;-90
2022/11/22 00:35:34;;;;;;;21.17;12.20;;;9.90;99.90;9.90;97999.00;;;;342054;28;82432;-90
2022/11/22 00:35:46;;;;;;;19.58;12.10;;;9.90;99.90;9.80;97999.00;;;;340722;28;88749;-90
2022/11/22 00:35:58;;;;;;;20.25;10.85;;;9.90;99.90;9.80;97994.00;;;;342172;28;87659;-90
2022/11/22 00:36:09;;;;;;;19.88;10.35;;;9.90;99.90;9.90;98000.00;;;;344684;28;92094;-91
2022/11/22 00:36:22;;;;;;;17.60;9.98;;;9.90;99.90;9.90;97997.00;;;;343382;28;82618;-90
2022/11/22 00:36:34;;;;;;;15.70;9.57;;;9.90;99.90;10.00;97997.00;;;;343004;28;89553;-89
2022/11/22 00:36:45;;;;;;;16.25;9.95;;;9.90;99.90;10.00;98000.00;;;;342978;28;86035;-90
2022/11/22 00:36:57;;;;;;;18.42;10.65;;;9.90;99.90;9.90;97996.00;;;;343059;28;88275;-90
2022/11/22 00:37:09;;;;;;;20.52;11.25;;;9.90;99.90;9.90;97996.00;;;;343773;28;82280;-89
2022/11/22 00:37:21;;;;;;;20.45;11.57;;;9.90;99.90;9.90;98001.00;;;;340456;28;93258;-89
2022/11/22 00:37:33;;;;;;;20.15;11.77;;;9.90;99.90;9.90;98006.00;;;;343399;28;87593;-89
2022/11/22 00:37:45;;;;;;;20.13;11.13;;;9.90;99.90;9.90;98002.00;;;;341917;28;90256;-89
2022/11/22 00:37:57;;;;;;;19.70;11.15;;;9.90;99.90;10.00;98002.00;;;;343839;28;84753;-90
2022/11/22 00:38:09;;;;;;;19.40;10.70;;;9.90;99.90;10.10;98001.00;;;;340748;28;90752;-90
2022/11/22 00:38:21;;;;;;;17.13;10.70;;;9.90;99.90;10.10;98002.00;;;;343412;28;84880;-90
2022/11/22 00:38:33;;;;;;;19.08;10.80;;;9.90;99.90;10.10;98000.00;;;;340753;28;89874;-90
2022/11/22 00:38:44;;;;;;;18.00;10.65;;;9.90;99.90;10.00;97991.00;;;;343475;28;86889;-90
2022/11/22 00:38:56;;;;;;;18.58;10.98;;;9.90;99.90;10.00;98008.00;;;;340730;28;87917;-90
2022/11/22 00:39:08;;;;;;;17.67;10.30;;;9.90;99.90;10.00;98005.00;;;;342394;28;83715;-90
2022/11/22 00:39:21;;;;;;;17.20;9.88;;;9.90;99.90;10.00;98006.00;;;;340511;28;88074;-89
2022/11/22 00:39:32;;;;;;;17.27;9.98;;;9.90;99.90;10.00;98009.00;;;;341976;28;86552;-90
2022/11/22 00:39:45;;;;;;;16.15;9.88;;;9.90;99.90;10.00;98011.00;;;;344743;28;88291;-90
2022/11/22 00:39:56;;;;;;;16.52;10.30;;;9.90;99.90;9.90;98007.00;;;;343183;28;86099;-90
2022/11/22 00:40:09;;;;;;;19.38;10.50;;;9.90;99.90;10.00;98010.00;;;;341708;28;90110;-90
2022/11/22 00:40:21;;;;;;;23.67;10.80;;;9.90;99.90;10.00;98004.00;;;;342129;28;87171;-91
2022/11/22 00:40:33;;;;;;;24.02;10.77;;;9.90;99.90;10.00;98021.00;;;;341614;28;88078;-90
2022/11/22 00:40:45;;;;;;;17.85;10.15;;;9.90;99.90;10.10;98003.00;;;;342163;28;83682;-90
2022/11/22 00:40:57;;;;;;;16.50;9.82;;;9.90;99.90;10.10;98011.00;;;;341438;28;91738;-90
2022/11/22 00:41:09;;;;;;;17.67;10.05;;;9.90;99.90;10.20;98016.00;;;;344632;28;84658;-90
2022/11/22 00:41:21;;;;;;;20.75;10.90;;;9.90;99.90;10.10;98022.00;;;;341778;28;90677;-90
2022/11/22 00:41:33;;;;;;;19.63;11.10;;;9.90;99.90;10.10;98013.00;;;;343081;28;85223;-89
2022/11/22 00:41:44;;;;;;;17.10;10.73;;;9.90;99.90;10.20;98009.00;;;;340103;28;92683;-89
2022/11/22 00:41:57;;;;;;;16.60;10.82;;;9.90;99.90;10.10;98015.00;;;;342029;28;83286;-90
2022/11/22 00:42:09;;;;;;;15.95;10.23;;;9.90;99.90;10.10;98015.00;;;;343183;28;91631;-89
2022/11/22 00:42:20;;;;;;;17.35;10.88;;;9.90;99.90;10.10;98016.00;;;;343307;28;87262;-90
2022/11/22 00:42:32;;;;;;;17.63;10.13;;;9.90;99.90;10.20;98006.00;;;;342776;28;89399;-89
2022/11/22 00:42:44;;;;;;;20.15;10.40;;;10.00;99.90;10.20;98017.00;;;;343444;28;82409;-89
2022/11/22 00:42:56;;;;;;;18.30;9.82;;;10.00;99.90;10.20;98017.00;;;;340308;28;91591;-90
2022/11/22 00:43:08;;;;;;;18.70;10.23;;;10.00;99.90;10.20;98024.00;;;;344880;28;85265;-90
2022/11/22 00:43:20;;;;;;;17.30;9.55;;;10.00;99.90;10.20;98015.00;;;;342760;28;91080;-89
2022/11/22 00:43:32;;;;;;;16.55;9.63;;;10.00;99.90;10.20;98030.00;;;;343411;28;84488;-90
2022/11/22 00:43:44;;;;;;;17.52;10.10;;;10.00;99.90;10.20;98022.00;;;;342233;28;87365;-90
2022/11/22 00:43:56;;;;;;;18.20;10.55;;;10.00;99.90;10.20;98029.00;;;;340681;28;83325;-90
2022/11/22 00:44:08;;;;;;;17.27;10.32;;;10.00;99.90;10.20;98026.00;;;;340571;28;89217;-90
2022/11/22 00:44:20;;;;;;;19.42;10.55;;;10.00;99.90;10.30;98023.00;;;;343260;28;86039;-91
2022/11/22 00:44:32;;;;;;;18.73;10.82;;;10.00;99.90;10.20;98021.00;;;;344025;28;91613;-90
2022/11/22 00:44:43;;;;;;;18.02;10.93;;;10.00;99.90;10.30;98025.00;;;;343315;28;83759;-90
2022/11/22 00:44:55;;;;;;;17.85;10.80;;;10.00;99.90;10.30;98031.00;;;;345839;28;90217;-91
2022/11/22 00:45:08;;;;;;;17.00;9.85;;;10.00;99.90;10.30;98029.00;;;;342013;28;82572;-90
2022/11/22 00:45:19;;;;;;;17.30;9.80;;;10.00;99.90;10.30;98033.00;;;;340512;28;89009;-89
2022/11/22 00:45:31;;;;;;;17.70;10.50;;;10.00;99.90;10.20;98030.00;;;;343196;28;83531;-90
2022/11/22 00:45:43;;;;;;;15.77;10.00;;;10.00;99.90;10.10;98024.00;;;;342927;28;90378;-90
2022/11/22 00:45:55;;;;;;;17.05;9.13;;;10.00;99.90;10.10;98027.00;;;;343255;28;85987;-89
2022/11/22 00:46:07;;;;;;;16.23;8.63;;;10.00;99.90;10.10;98026.00;;;;342799;28;89619;-90
2022/11/22 00:46:18;;;;;;;15.70;8.90;;;10.00;99.90;10.10;98031.00;;;;340434;28;83552;-90
2022/11/22 00:46:30;;;;;;;17.13;9.57;;;10.00;99.90;10.20;98021.00;;;;343216;28;90097;-90
2022/11/22 00:46:42;;;;;;;15.98;9.55;;;10.00;99.90;10.20;98022.00;;;;343648;28;82569;-90
2022/11/22 00:46:54;;;;;;;15.25;9.40;;;10.00;99.90;10.10;98023.00;;;;344443;28;88952;-90
2022/11/22 00:47:06;;;;;;;16.77;9.35;;;10.00;99.90;10.20;98037.00;;;;341920;28;84746;-90
2022/11/22 00:47:18;;;;;;;17.13;9.30;;;10.00;99.90;10.20;98030.00;;;;342938;28;92130;-87
2022/11/22 00:47:30;;;;;;;15.52;9.00;;;10.00;99.90;10.10;98035.00;;;;342147;28;83333;-90
2022/11/22 00:47:42;;;;;;;17.15;9.60;;;10.00;99.90;10.10;98022.00;;;;343328;28;91113;-90
2022/11/22 00:47:54;;;;;;;19.48;9.95;;;10.00;99.90;10.20;98030.00;;;;343415;28;84318;-90
2022/11/22 00:48:05;;;;;;;16.35;9.55;;;10.00;99.90;10.10;98034.00;;;;344170;28;88201;-90
2022/11/22 00:48:17;;;;;;;14.43;9.07;;;10.00;99.90;10.20;98024.00;;;;344869;28;83423;-90
2022/11/22 00:48:29;;;;;;;14.48;8.77;;;10.00;99.90;10.30;98032.00;;;;344590;28;87714;-90
2022/11/22 00:48:41;;;;;;;15.40;8.60;;;10.00;99.90;10.30;98024.00;;;;343584;28;82428;-89
2022/11/22 00:48:53;;;;;;;14.13;8.77;;;10.00;99.90;10.30;98030.00;;;;341871;28;87895;-90
2022/11/22 00:49:05;;;;;;;18.35;9.45;;;10.10;99.90;10.20;98040.00;;;;343683;28;83366;-90
2022/11/22 00:49:17;;;;;;;18.13;9.20;;;10.10;99.90;10.20;98028.00;;;;342747;28;90641;-89
2022/11/22 00:49:29;;;;;;;16.05;9.13;;;10.00;99.90;10.20;98029.00;;;;344737;28;83001;-90
2022/11/22 00:49:41;;;;;;;16.40;9.73;;;10.10;99.90;10.30;98035.00;;;;342991;28;89941;-90
2022/11/22 00:49:53;;;;;;;14.77;9.55;;;10.10;99.90;10.40;98037.00;;;;342140;28;82454;-90
2022/11/22 00:50:05;;;;;;;14.15;9.07;;;10.10;99.90;10.30;98023.00;;;;340406;28;90246;-91
2022/11/22 00:50:17;;;;;;;15.93;8.82;;;10.10;99.90;10.40;98033.00;;;;341928;28;82600;-90
2022/11/22 00:50:29;;;;;;;16.52;9.10;;;10.10;99.90;10.40;98035.00;;;;343344;28;88165;-89
2022/11/22 00:50:40;;;;;;;14.75;8.85;;;10.10;99.90;10.40;98040.00;;;;342122;28;83213;-89
2022/11/22 00:50:52;;;;;;;14.18;9.20;;;10.10;99.90;10.40;98035.00;;;;343025;28;88058;-89
2022/11/22 00:51:04;;;;;;;13.98;8.85;;;10.10;99.90;10.40;98037.00;;;;341907;28;83504;-90
2022/11/22 00:51:16;;;;;;;14.48;8.73;;;10.10;99.90;10.40;98033.00;;;;342931;28;91853;-90
2022/11/22 00:51:28;;;;;;;12.88;8.15;;;10.10;99.90;10.40;98034.00;;;;342027;28;83466;-90
2022/11/22 00:51:40;;;;;;;14.57;8.60;;;10.10;99.90;10.30;98041.00;;;;342902;28;91976;-90
2022/11/22 00:51:52;;;;;;;13.65;8.50;;;10.10;99.90;10.20;98036.00;;;;343130;28;83579;-89
2022/11/22 00:52:04;;;;;;;17.13;9.18;;;10.10;99.90;10.20;98033.00;;;;342339;28;91756;-90
2022/11/22 00:52:16;;;;;;;18.25;9.43;;;10.10;99.90;10.40;98039.00;;;;340583;28;83505;-90
2022/11/22 00:52:27;;;;;;;19.63;9.63;;;10.10;99.90;10.40;98033.00;;;;343341;28;87961;-90
2022/11/22 00:52:39;;;;;;;16.95;9.18;;;10.10;99.90;10.30;98038.00;;;;342153;28;83476;-88
2022/11/22 00:52:51;;;;;;;15.52;9.50;;;10.10;99.90;10.40;98039.00;;;;342917;28;91507;-90
2022/11/22 00:53:03;;;;;;;14.00;8.48;;;10.10;99.90;10.30;98041.00;;;;343336;28;83379;-89
2022/11/22 00:53:15;;;;;;;14.38;7.88;;;10.20;99.90;10.20;98038.00;;;;342821;28;92019;-90
2022/11/22 00:53:26;;;;;;;13.90;7.82;;;10.10;99.90;10.20;98041.00;;;;343237;28;82605;-89
2022/11/22 00:53:38;;;;;;;12.77;8.32;;;10.10;99.90;10.30;98037.00;;;;341896;28;88216;-90